createdAt,value
2022-10-22T00:00:03.385Z,13.30
2022-10-22T00:02:29.973Z,13.40
2022-10-22T00:04:57.349Z,13.30
2022-10-22T00:07:24.942Z,13.30
2022-10-22T00:09:51.864Z,13.30
2022-10-22T00:12:19.805Z,13.30
2022-10-22T00:14:46.961Z,13.30
2022-10-22T00:17:14.168Z,13.20
2022-10-22T00:19:41.235Z,13.20
2022-10-22T00:22:08.904Z,13.20
2022-10-22T00:24:37.170Z,13.20
2022-10-22T00:27:04.462Z,13.10
2022-10-22T00:29:31.274Z,13.10
2022-10-22T00:31:58.276Z,13.10
2022-10-22T00:34:26.799Z,13.10
2022-10-22T00:36:54.506Z,13.10
2022-10-22T00:39:23.997Z,13.10
2022-10-22T00:41:53.198Z,13.10
2022-10-22T00:44:57.692Z,13.00
2022-10-22T00:47:27.755Z,13.00
2022-10-22T00:49:55.982Z,13.00
2022-10-22T00:52:23.355Z,13.00
2022-10-22T00:54:51.231Z,12.90
2022-10-22T00:57:19.666Z,12.80
2022-10-22T00:59:47.475Z,12.80
2022-10-22T01:02:14.563Z,12.80
2022-10-22T01:04:41.993Z,12.80
2022-10-22T01:07:17.043Z,12.80
2022-10-22T01:09:57.310Z,12.80
2022-10-22T01:12:39.306Z,12.80
2022-10-22T01:15:26.866Z,12.80
2022-10-22T01:18:02.842Z,12.80
2022-10-22T01:21:07.482Z,12.80
2022-10-22T01:24:06.283Z,12.80
2022-10-22T01:27:00.440Z,12.80
2022-10-22T01:29:52.258Z,12.80
2022-10-22T01:32:23.580Z,12.90
2022-10-22T01:35:00.317Z,12.90
2022-10-22T01:37:30.270Z,12.90
2022-10-22T01:39:59.987Z,12.90
2022-10-22T01:42:26.734Z,13.00
2022-10-22T01:44:53.714Z,13.00
2022-10-22T01:47:36.938Z,13.00
2022-10-22T01:50:16.469Z,13.10
2022-10-22T01:52:46.315Z,13.20
2022-10-22T01:55:42.808Z,13.20
2022-10-22T01:58:37.671Z,13.20
2022-10-22T02:01:23.173Z,13.30
2022-10-22T02:04:01.768Z,13.30
2022-10-22T02:06:29.804Z,13.30
2022-10-22T02:08:57.690Z,13.30
2022-10-22T02:11:24.259Z,13.30
2022-10-22T02:13:55.602Z,13.30
2022-10-22T02:16:29.028Z,13.40
2022-10-22T02:18:58.459Z,13.30
2022-10-22T02:21:26.737Z,13.30
2022-10-22T02:23:53.292Z,13.30
2022-10-22T02:26:25.416Z,13.30
2022-10-22T02:29:13.290Z,13.30
2022-10-22T02:31:44.157Z,13.30
2022-10-22T02:34:15.667Z,13.20
2022-10-22T02:36:46.788Z,13.20
2022-10-22T02:41:49.716Z,13.10
2022-10-22T02:44:20.032Z,13.00
2022-10-22T02:46:46.994Z,12.90
2022-10-22T02:49:13.541Z,12.90
2022-10-22T02:51:40.581Z,12.90
2022-10-22T02:54:07.156Z,12.80
2022-10-22T02:56:34.593Z,12.80
2022-10-22T02:59:01.111Z,12.80
2022-10-22T03:01:28.107Z,12.80
2022-10-22T03:03:54.718Z,12.80
2022-10-22T03:06:22.145Z,12.80
2022-10-22T03:08:48.722Z,12.70
2022-10-22T03:11:15.720Z,12.60
2022-10-22T03:13:42.664Z,12.60
2022-10-22T03:16:09.758Z,12.50
2022-10-22T03:18:36.379Z,12.50
2022-10-22T03:21:27.675Z,12.40
2022-10-22T03:23:55.378Z,12.40
2022-10-22T03:26:22.171Z,12.30
2022-10-22T03:28:49.463Z,12.30
2022-10-22T03:31:16.498Z,12.20
2022-10-22T03:33:43.439Z,12.20
2022-10-22T03:36:10.601Z,12.10
2022-10-22T03:38:38.751Z,12.10
2022-10-22T03:41:06.456Z,12.10
2022-10-22T03:43:35.665Z,12.00
2022-10-22T03:46:02.657Z,11.90
2022-10-22T03:48:29.402Z,11.90
2022-10-22T03:50:56.359Z,11.70
2022-10-22T03:53:22.948Z,11.70
2022-10-22T03:55:49.610Z,11.50
2022-10-22T03:58:16.600Z,11.40
2022-10-22T04:00:43.158Z,11.30
2022-10-22T04:03:10.115Z,11.30
2022-10-22T04:05:36.666Z,11.20
2022-10-22T04:08:06.313Z,11.20
2022-10-22T04:10:32.926Z,11.20
2022-10-22T04:12:59.881Z,11.20
2022-10-22T04:15:28.093Z,11.20
2022-10-22T04:17:55.146Z,11.20
2022-10-22T04:20:22.169Z,11.20
2022-10-22T04:22:49.215Z,11.20
2022-10-22T04:25:15.782Z,11.30
2022-10-22T04:27:42.787Z,11.20
2022-10-22T04:30:10.523Z,11.10
2022-10-22T04:32:37.487Z,11.10
2022-10-22T04:35:04.402Z,11.10
2022-10-22T04:37:32.695Z,11.10
2022-10-22T04:39:59.731Z,11.10
2022-10-22T04:42:26.357Z,11.10
2022-10-22T04:44:52.888Z,11.10
2022-10-22T04:47:19.855Z,11.10
2022-10-22T04:49:46.386Z,11.10
2022-10-22T04:52:12.936Z,11.10
2022-10-22T04:54:39.926Z,11.10
2022-10-22T04:57:06.556Z,11.10
2022-10-22T04:59:33.627Z,11.10
2022-10-22T05:02:00.588Z,11.10
2022-10-22T05:04:27.626Z,11.20
2022-10-22T05:06:54.201Z,11.20
2022-10-22T05:09:21.215Z,11.10
2022-10-22T05:11:50.399Z,11.10
2022-10-22T05:14:23.343Z,11.10
2022-10-22T05:16:50.695Z,11.10
2022-10-22T05:19:21.091Z,11.20
2022-10-22T05:21:48.042Z,11.20
2022-10-22T05:24:14.608Z,11.20
2022-10-22T05:26:41.923Z,11.30
2022-10-22T05:29:08.589Z,11.30
2022-10-22T05:31:35.818Z,11.30
2022-10-22T05:34:02.481Z,11.40
2022-10-22T05:36:29.098Z,11.40
2022-10-22T05:38:58.831Z,11.40
2022-10-22T05:41:27.313Z,11.50
2022-10-22T05:43:58.801Z,11.50
2022-10-22T05:46:28.336Z,11.50
2022-10-22T05:48:57.204Z,11.50
2022-10-22T05:51:25.710Z,11.50
2022-10-22T05:53:54.373Z,11.50
2022-10-22T05:56:22.008Z,11.50
2022-10-22T05:58:49.125Z,11.40
2022-10-22T06:01:22.138Z,11.40
2022-10-22T06:03:49.056Z,11.40
2022-10-22T06:06:39.322Z,11.40
2022-10-22T06:09:18.226Z,11.30
2022-10-22T06:11:45.984Z,11.30
2022-10-22T06:14:13.503Z,11.20
2022-10-22T06:16:40.701Z,11.20
2022-10-22T06:19:09.176Z,11.10
2022-10-22T06:21:36.217Z,11.10
2022-10-22T06:24:02.774Z,11.10
2022-10-22T06:26:29.835Z,11.20
2022-10-22T06:28:57.822Z,11.20
2022-10-22T06:31:26.326Z,11.20
2022-10-22T06:33:53.515Z,11.30
2022-10-22T06:36:23.064Z,11.30
2022-10-22T06:38:54.247Z,11.30
2022-10-22T06:41:24.280Z,11.40
2022-10-22T06:43:54.869Z,11.50
2022-10-22T06:46:24.667Z,11.50
2022-10-22T06:48:58.524Z,11.50
2022-10-22T06:51:26.718Z,11.60
2022-10-22T06:53:55.367Z,11.60
2022-10-22T06:56:24.860Z,11.60
2022-10-22T06:58:53.722Z,11.60
2022-10-22T07:01:25.484Z,11.60
2022-10-22T07:03:53.600Z,11.60
2022-10-22T07:06:22.377Z,11.60
2022-10-22T07:08:49.476Z,11.60
2022-10-22T07:11:21.855Z,11.70
2022-10-22T07:13:49.762Z,11.70
2022-10-22T07:16:18.366Z,11.70
2022-10-22T07:18:46.434Z,11.70
2022-10-22T07:21:16.301Z,11.80
2022-10-22T07:23:44.385Z,11.80
2022-10-22T07:26:13.618Z,12.00
2022-10-22T07:28:41.440Z,12.00
2022-10-22T07:31:11.038Z,12.10
2022-10-22T07:33:38.214Z,12.20
2022-10-22T07:36:08.713Z,12.30
2022-10-22T07:38:35.895Z,12.40
2022-10-22T07:41:03.787Z,12.40
2022-10-22T07:43:30.366Z,12.50
2022-10-22T07:45:57.359Z,12.60
2022-10-22T07:48:23.956Z,12.60
2022-10-22T07:50:51.719Z,12.70
2022-10-22T07:53:18.966Z,12.70
2022-10-22T07:55:49.307Z,12.80
2022-10-22T07:58:19.927Z,12.80
2022-10-22T08:00:47.208Z,12.80
2022-10-22T08:03:16.364Z,12.80
2022-10-22T08:05:46.298Z,12.80
2022-10-22T08:08:14.718Z,12.80
2022-10-22T08:10:41.711Z,12.90
2022-10-22T08:13:09.022Z,12.80
2022-10-22T08:15:35.804Z,12.90
2022-10-22T08:18:02.826Z,12.90
2022-10-22T08:20:29.799Z,12.90
2022-10-22T08:22:56.857Z,13.00
2022-10-22T08:25:23.567Z,13.10
2022-10-22T08:27:50.123Z,13.20
2022-10-22T08:30:17.560Z,13.30
2022-10-22T08:32:44.218Z,13.30
2022-10-22T08:35:14.150Z,13.40
2022-10-22T08:37:43.710Z,13.40
2022-10-22T08:40:19.484Z,13.40
2022-10-22T08:42:51.908Z,13.50
2022-10-22T08:45:33.187Z,13.60
2022-10-22T08:48:18.296Z,13.60
2022-10-22T08:50:51.424Z,13.70
2022-10-22T08:53:27.465Z,13.70
2022-10-22T08:55:54.724Z,13.80
2022-10-22T08:58:29.431Z,13.80
2022-10-22T09:01:00.569Z,13.90
2022-10-22T09:03:46.355Z,14.00
2022-10-22T09:06:21.491Z,14.00
2022-10-22T09:08:48.900Z,14.10
2022-10-22T09:11:37.103Z,14.20
2022-10-22T09:14:05.745Z,14.20
2022-10-22T09:16:42.142Z,14.20
2022-10-22T09:19:30.063Z,14.30
2022-10-22T09:22:13.247Z,14.30
2022-10-22T09:24:45.559Z,14.40
2022-10-22T09:27:28.644Z,14.50
2022-10-22T09:29:55.643Z,14.50
2022-10-22T09:32:22.998Z,14.60
2022-10-22T09:34:55.032Z,14.70
2022-10-22T09:37:26.842Z,14.70
2022-10-22T09:39:56.304Z,14.80
2022-10-22T09:42:24.047Z,14.80
2022-10-22T09:44:54.134Z,14.80
2022-10-22T09:47:50.005Z,14.80
2022-10-22T09:50:47.998Z,14.90
2022-10-22T09:53:31.512Z,14.90
2022-10-22T09:56:01.232Z,15.00
2022-10-22T09:58:28.558Z,15.00
2022-10-22T10:01:01.546Z,15.10
2022-10-22T10:03:32.983Z,15.10
2022-10-22T10:06:04.992Z,15.20
2022-10-22T10:08:33.833Z,15.30
2022-10-22T10:11:08.961Z,15.40
2022-10-22T10:13:52.004Z,15.40
2022-10-22T10:16:30.922Z,15.50
2022-10-22T10:19:18.719Z,15.50
2022-10-22T10:22:10.729Z,15.60
2022-10-22T10:25:14.159Z,15.70
2022-10-22T10:27:53.744Z,15.70
2022-10-22T10:30:24.378Z,15.70
2022-10-22T10:33:30.039Z,15.80
2022-10-22T10:36:07.514Z,15.80
2022-10-22T10:39:06.611Z,15.80
2022-10-22T10:41:54.150Z,15.90
2022-10-22T10:44:35.787Z,16.10
2022-10-22T10:47:41.755Z,16.40
2022-10-22T10:50:19.176Z,16.60
2022-10-22T10:52:52.328Z,16.80
2022-10-22T10:55:42.248Z,16.90
2022-10-22T10:58:21.423Z,17.00
2022-10-22T11:01:05.134Z,17.00
2022-10-22T11:04:01.418Z,17.00
2022-10-22T11:06:31.472Z,17.00
2022-10-22T11:09:04.347Z,17.00
2022-10-22T11:11:47.259Z,16.90
2022-10-22T11:14:19.907Z,16.90
2022-10-22T11:16:57.899Z,16.90
2022-10-22T11:19:57.796Z,16.90
2022-10-22T11:22:33.107Z,16.90
2022-10-22T11:25:03.267Z,16.90
2022-10-22T11:27:31.862Z,16.90
2022-10-22T11:30:20.297Z,16.90
2022-10-22T11:32:53.154Z,16.90
2022-10-22T11:35:28.155Z,16.90
2022-10-22T11:37:56.962Z,16.90
2022-10-22T11:40:36.154Z,16.90
2022-10-22T11:43:33.218Z,16.90
2022-10-22T11:46:29.040Z,16.90
2022-10-22T11:49:10.104Z,17.00
2022-10-22T11:51:40.087Z,17.10
2022-10-22T11:54:34.704Z,17.10
2022-10-22T11:57:20.578Z,17.20
2022-10-22T11:59:47.056Z,17.20
2022-10-22T12:02:29.042Z,17.20
2022-10-22T12:05:16.168Z,17.30
2022-10-22T12:08:01.335Z,17.30
2022-10-22T12:10:34.628Z,17.40
2022-10-22T12:13:28.751Z,17.50
2022-10-22T12:15:59.582Z,17.60
2022-10-22T12:18:32.762Z,17.60
2022-10-22T12:20:59.792Z,17.70
2022-10-22T12:23:31.778Z,17.70
2022-10-22T12:25:58.523Z,17.80
2022-10-22T12:28:25.084Z,17.90
2022-10-22T12:30:52.127Z,17.90
2022-10-22T12:33:21.763Z,17.90
2022-10-22T12:35:51.468Z,17.90
2022-10-22T12:38:21.911Z,17.80
2022-10-22T12:40:50.442Z,17.90
2022-10-22T12:43:20.081Z,17.90
2022-10-22T12:45:49.006Z,17.90
2022-10-22T12:48:19.496Z,18.00
2022-10-22T12:50:55.483Z,18.00
2022-10-22T12:53:42.815Z,18.00
2022-10-22T12:56:18.185Z,18.10
2022-10-22T13:01:43.134Z,18.40
2022-10-22T13:04:12.670Z,18.50
2022-10-22T13:06:45.092Z,18.50
2022-10-22T13:09:23.885Z,18.60
2022-10-22T13:12:04.976Z,18.60
2022-10-22T13:14:37.979Z,18.60
2022-10-22T13:17:17.485Z,18.60
2022-10-22T13:19:46.354Z,18.60
2022-10-22T13:22:34.851Z,18.50
2022-10-22T13:25:13.980Z,18.50
2022-10-22T13:27:48.543Z,18.40
2022-10-22T13:30:23.644Z,18.30
2022-10-22T13:32:55.798Z,18.20
2022-10-22T13:35:27.404Z,18.10
2022-10-22T13:37:54.082Z,18.00
2022-10-22T13:40:21.802Z,17.90
2022-10-22T13:42:48.778Z,17.90
2022-10-22T13:45:16.143Z,17.80
2022-10-22T13:47:48.481Z,17.70
2022-10-22T13:50:18.131Z,17.70
2022-10-22T13:52:53.031Z,17.70
2022-10-22T13:55:30.854Z,17.70
2022-10-22T13:58:11.179Z,17.70
2022-10-22T14:00:57.712Z,17.60
2022-10-22T14:03:30.415Z,17.70
2022-10-22T14:05:57.758Z,17.70
2022-10-22T14:08:26.090Z,17.70
2022-10-22T14:10:54.364Z,17.70
2022-10-22T14:13:21.755Z,17.80
2022-10-22T14:15:50.506Z,17.70
2022-10-22T14:18:25.677Z,17.70
2022-10-22T14:21:04.641Z,17.60
2022-10-22T14:23:32.767Z,17.50
2022-10-22T14:26:00.305Z,17.50
2022-10-22T14:28:27.563Z,17.40
2022-10-22T14:30:54.861Z,17.40
2022-10-22T14:33:29.019Z,17.40
2022-10-22T14:35:59.823Z,17.30
2022-10-22T14:38:26.904Z,17.30
2022-10-22T14:40:53.582Z,17.30
2022-10-22T14:43:29.412Z,17.40
2022-10-22T14:45:56.707Z,17.40
2022-10-22T14:48:23.834Z,17.50
2022-10-22T14:50:52.153Z,17.50
2022-10-22T14:53:18.752Z,17.50
2022-10-22T14:55:47.679Z,17.40
2022-10-22T14:58:14.486Z,17.40
2022-10-22T15:00:43.021Z,17.40
2022-10-22T15:03:11.417Z,17.30
2022-10-22T15:05:45.178Z,17.30
2022-10-22T15:08:13.627Z,17.20
2022-10-22T15:10:41.139Z,17.20
2022-10-22T15:13:07.859Z,17.10
2022-10-22T15:15:39.555Z,17.10
2022-10-22T15:18:07.110Z,17.00
2022-10-22T15:20:34.075Z,16.90
2022-10-22T15:23:00.663Z,16.80
2022-10-22T15:25:27.440Z,16.70
2022-10-22T15:27:58.515Z,16.70
2022-10-22T15:30:31.285Z,16.60
2022-10-22T15:32:58.275Z,16.60
2022-10-22T15:35:27.611Z,16.50
2022-10-22T15:37:54.141Z,16.50
2022-10-22T15:40:21.091Z,16.40
2022-10-22T15:42:47.603Z,16.40
2022-10-22T15:45:15.996Z,16.40
2022-10-22T15:47:47.660Z,16.40
2022-10-22T15:50:15.270Z,16.50
2022-10-22T15:52:41.807Z,16.50
2022-10-22T15:55:10.407Z,16.40
2022-10-22T15:57:38.408Z,16.40
2022-10-22T16:00:07.320Z,16.30
2022-10-22T16:02:34.363Z,16.20
2022-10-22T16:05:00.895Z,16.10
2022-10-22T16:07:27.451Z,16.00
2022-10-22T16:09:58.874Z,15.90
2022-10-22T16:12:25.899Z,15.80
2022-10-22T16:14:52.931Z,15.70
2022-10-22T16:17:19.537Z,15.60
2022-10-22T16:19:48.345Z,15.50
2022-10-22T16:22:15.976Z,15.50
2022-10-22T16:24:43.517Z,15.30
2022-10-22T16:27:10.454Z,15.30
2022-10-22T16:29:39.298Z,15.20
2022-10-22T16:32:06.268Z,15.00
2022-10-22T16:34:33.310Z,14.90
2022-10-22T16:36:59.961Z,14.70
2022-10-22T16:39:26.907Z,14.60
2022-10-22T16:41:53.450Z,14.50
2022-10-22T16:44:20.394Z,14.50
2022-10-22T16:46:47.155Z,14.50
2022-10-22T16:49:14.111Z,14.50
2022-10-22T16:51:40.674Z,14.40
2022-10-22T16:54:11.300Z,14.50
2022-10-22T16:56:39.526Z,14.50
2022-10-22T16:59:06.755Z,14.50
2022-10-22T17:01:37.941Z,14.50
2022-10-22T17:04:07.498Z,14.40
2022-10-22T17:06:34.138Z,14.50
2022-10-22T17:09:01.308Z,14.50
2022-10-22T17:11:30.028Z,14.50
2022-10-22T17:13:56.873Z,14.60
2022-10-22T17:16:25.075Z,14.60
2022-10-22T17:18:53.758Z,14.70
2022-10-22T17:21:21.624Z,14.70
2022-10-22T17:23:48.803Z,14.70
2022-10-22T17:26:21.928Z,14.70
2022-10-22T17:28:49.838Z,14.80
2022-10-22T17:31:26.113Z,14.80
2022-10-22T17:33:55.269Z,14.80
2022-10-22T17:36:23.386Z,14.80
2022-10-22T17:38:52.333Z,14.90
2022-10-22T17:41:23.950Z,14.90
2022-10-22T17:43:50.839Z,15.00
2022-10-22T17:46:28.796Z,15.00
2022-10-22T17:49:00.812Z,15.10
2022-10-22T17:51:29.339Z,15.10
2022-10-22T17:53:56.340Z,15.10
2022-10-22T17:56:26.064Z,15.10
2022-10-22T17:58:53.093Z,15.10
2022-10-22T18:01:26.143Z,15.20
2022-10-22T18:03:54.267Z,15.20
2022-10-22T18:06:21.217Z,15.10
2022-10-22T18:08:48.462Z,15.20
2022-10-22T18:11:19.267Z,15.20
2022-10-22T18:13:53.243Z,15.20
2022-10-22T18:16:20.544Z,15.20
2022-10-22T18:18:48.599Z,15.20
2022-10-22T18:21:18.780Z,15.10
2022-10-22T18:23:46.601Z,15.10
2022-10-22T18:26:14.279Z,15.00
2022-10-22T18:28:41.335Z,15.00
2022-10-22T18:31:11.027Z,14.90
2022-10-22T18:33:37.754Z,14.80
2022-10-22T18:36:10.618Z,14.70
2022-10-22T18:38:41.010Z,14.60
2022-10-22T18:41:09.998Z,14.60
2022-10-22T18:43:37.455Z,14.50
2022-10-22T18:46:06.826Z,14.50
2022-10-22T18:48:37.980Z,14.50
2022-10-22T18:51:08.771Z,14.50
2022-10-22T18:53:36.958Z,14.50
2022-10-22T18:56:08.142Z,14.50
2022-10-22T18:58:39.549Z,14.40
2022-10-22T19:01:12.100Z,14.40
2022-10-22T19:03:39.191Z,14.40
2022-10-22T19:06:06.058Z,14.50
2022-10-22T19:08:35.816Z,14.50
2022-10-22T19:11:02.962Z,14.50
2022-10-22T19:13:29.496Z,14.60
2022-10-22T19:16:02.152Z,14.60
2022-10-22T19:18:29.090Z,14.60
2022-10-22T19:21:03.294Z,14.70
2022-10-22T19:23:30.383Z,14.70
2022-10-22T19:26:06.643Z,14.70
2022-10-22T19:28:34.311Z,14.70
2022-10-22T19:31:01.009Z,14.80
2022-10-22T19:33:27.806Z,14.80
2022-10-22T19:35:54.352Z,14.80
2022-10-22T19:38:21.022Z,14.80
2022-10-22T19:40:47.680Z,14.80
2022-10-22T19:43:18.181Z,14.80
2022-10-22T19:45:45.636Z,14.80
2022-10-22T19:48:12.153Z,14.70
2022-10-22T19:50:39.352Z,14.80
2022-10-22T19:53:06.339Z,14.70
2022-10-22T19:55:32.891Z,14.70
2022-10-22T19:57:59.464Z,14.70
2022-10-22T20:00:27.891Z,14.70
2022-10-22T20:02:54.520Z,14.70
2022-10-22T20:07:53.486Z,14.70
2022-10-22T20:10:20.006Z,14.70
2022-10-22T20:12:46.531Z,14.70
2022-10-22T20:15:14.132Z,14.70
2022-10-22T20:17:41.315Z,14.70
2022-10-22T20:20:08.642Z,14.70
2022-10-22T20:22:35.641Z,14.70
2022-10-22T20:25:02.279Z,14.70
2022-10-22T20:27:28.858Z,14.70
2022-10-22T20:29:55.820Z,14.70
2022-10-22T20:32:24.041Z,14.70
2022-10-22T20:34:50.973Z,14.70
2022-10-22T20:37:17.520Z,14.70
2022-10-22T20:39:44.652Z,14.70
2022-10-22T20:42:11.221Z,14.70
2022-10-22T20:44:37.786Z,14.70
2022-10-22T20:47:04.437Z,14.70
2022-10-22T20:49:32.770Z,14.70
2022-10-22T20:51:59.452Z,14.60
2022-10-22T20:54:26.059Z,14.60
2022-10-22T20:56:53.194Z,14.50
2022-10-22T20:59:20.918Z,14.40
2022-10-22T21:01:50.308Z,14.40
2022-10-22T21:04:18.499Z,14.30
2022-10-22T21:06:45.823Z,14.20
2022-10-22T21:09:14.305Z,14.20
2022-10-22T21:11:43.361Z,14.10
2022-10-22T21:14:11.497Z,14.10
2022-10-22T21:16:42.097Z,14.00
2022-10-22T21:19:09.219Z,13.90
2022-10-22T21:21:35.854Z,13.80
2022-10-22T21:24:02.817Z,13.70
2022-10-22T21:26:29.379Z,13.60
2022-10-22T21:28:56.379Z,13.60
2022-10-22T21:31:25.809Z,13.60
2022-10-22T21:33:54.357Z,13.50
2022-10-22T21:36:23.232Z,13.40
2022-10-22T21:38:51.554Z,13.40
2022-10-22T21:41:20.412Z,13.30
2022-10-22T21:43:48.619Z,13.30
2022-10-22T21:46:21.139Z,13.20
2022-10-22T21:48:52.760Z,13.10
2022-10-22T21:51:20.174Z,13.10
2022-10-22T21:53:47.736Z,13.00
2022-10-22T21:56:20.318Z,12.90
2022-10-22T21:58:47.531Z,12.80
2022-10-22T22:01:17.055Z,12.80
2022-10-22T22:03:46.875Z,12.80
2022-10-22T22:06:16.845Z,12.80
2022-10-22T22:08:45.556Z,12.80
2022-10-22T22:11:15.868Z,12.80
2022-10-22T22:13:42.799Z,12.80
2022-10-22T22:16:13.165Z,12.80
2022-10-22T22:18:41.223Z,12.70
2022-10-22T22:21:14.683Z,12.70
2022-10-22T22:23:43.600Z,12.70
2022-10-22T22:26:11.421Z,12.60
2022-10-22T22:28:38.226Z,12.60
2022-10-22T22:31:14.222Z,12.60
2022-10-22T22:33:40.791Z,12.50
2022-10-22T22:36:08.287Z,12.40
2022-10-22T22:38:34.895Z,12.40
2022-10-22T22:41:02.559Z,12.30
2022-10-22T22:43:29.298Z,12.30
2022-10-22T22:46:04.540Z,12.20
2022-10-22T22:48:31.706Z,12.20
2022-10-22T22:51:00.403Z,12.10
2022-10-22T22:53:28.157Z,12.10
2022-10-22T22:56:09.741Z,12.00
2022-10-22T22:58:38.195Z,11.90
2022-10-22T23:01:27.403Z,11.90
2022-10-22T23:04:03.175Z,11.80
2022-10-22T23:06:33.171Z,11.80
2022-10-22T23:09:00.386Z,11.70
2022-10-22T23:11:28.121Z,11.60
2022-10-22T23:13:58.398Z,11.60
2022-10-22T23:16:28.185Z,11.50
2022-10-22T23:18:56.039Z,11.40
2022-10-22T23:21:28.564Z,11.40
2022-10-22T23:23:59.605Z,11.40
2022-10-22T23:26:32.998Z,11.30
2022-10-22T23:29:05.337Z,11.30
2022-10-22T23:31:32.325Z,11.20
2022-10-22T23:33:59.283Z,11.20
2022-10-22T23:36:26.376Z,11.20
2022-10-22T23:38:53.579Z,11.10
2022-10-22T23:41:20.151Z,11.10
2022-10-22T23:43:47.093Z,11.00
2022-10-22T23:46:14.272Z,11.00
2022-10-22T23:48:41.495Z,10.90
2022-10-22T23:51:11.086Z,10.90
2022-10-22T23:53:38.322Z,10.80
2022-10-22T23:56:10.863Z,10.80
2022-10-22T23:58:38.293Z,10.70
